Time;durP1;ratioP1;P1;durP2;ratioP2;P2;SDS_P1;SDS_P2;PMS_P1;PMS_P2;Temp;Humidity;BMP_temperature;BMP_pressure;BME280_temperature;BME280_humidity;BME280_pressure;Samples;Min_cycle;Max_cycle;Signal;HPM_P1;HPM_P2
2024/01/09 00:00:40;;;;;;;15.70;8.60;;;-1.20;61.30;;;;;;4954309;28;20034;-59
2024/01/09 00:03:06;;;;;;;18.90;9.13;;;-1.20;60.90;;;;;;4947374;28;20649;-60
2024/01/09 00:05:32;;;;;;;18.40;8.65;;;-1.20;61.30;;;;;;4947963;28;20399;-59
2024/01/09 00:07:57;;;;;;;16.85;9.25;;;-1.20;61.70;;;;;;4951814;28;20058;-61
2024/01/09 00:10:23;;;;;;;19.80;9.13;;;-1.50;61.50;;;;;;4950810;28;20035;-61
2024/01/09 00:12:49;;;;;;;18.05;9.10;;;-1.50;61.80;;;;;;4955226;28;20027;-61
2024/01/09 00:15:14;;;;;;;17.20;8.80;;;-1.50;61.30;;;;;;4952517;28;20031;-61
2024/01/09 00:17:42;;;;;;;18.10;9.65;;;-1.50;61.30;;;;;;4949585;28;20066;-59
2024/01/09 00:20:08;;;;;;;17.60;9.10;;;-1.50;60.80;;;;;;4946080;28;20526;-60
2024/01/09 00:22:33;;;;;;;17.00;9.18;;;-1.50;61.10;;;;;;4946973;28;20067;-61
2024/01/09 00:24:59;;;;;;;20.40;8.68;;;-1.50;60.80;;;;;;4949683;28;20079;-61
2024/01/09 00:27:25;;;;;;;19.67;9.82;;;-1.50;61.10;;;;;;4947464;28;20027;-59
2024/01/09 00:29:50;;;;;;;18.13;9.50;;;-1.60;61.10;;;;;;4933616;28;20035;-60
2024/01/09 00:32:16;;;;;;;19.48;9.68;;;-1.60;61.20;;;;;;4949761;28;20110;-61
2024/01/09 00:34:42;;;;;;;18.90;9.27;;;-1.60;59.90;;;;;;4933292;28;20523;-59
2024/01/09 00:37:07;;;;;;;17.58;9.23;;;-1.60;60.50;;;;;;4950792;28;20115;-59
2024/01/09 00:39:33;;;;;;;19.88;9.88;;;-1.60;61.30;;;;;;4956836;28;20115;-59
2024/01/09 00:41:59;;;;;;;16.88;8.85;;;-1.40;60.50;;;;;;4948843;28;20098;-60
2024/01/09 00:44:25;;;;;;;17.67;8.95;;;-1.60;60.90;;;;;;4951585;28;20119;-59
2024/01/09 00:46:52;;;;;;;19.08;8.93;;;-1.70;60.70;;;;;;4855112;28;20027;-61
2024/01/09 00:49:17;;;;;;;16.02;8.48;;;-1.70;60.50;;;;;;4947319;28;20027;-59
2024/01/09 00:51:43;;;;;;;17.38;9.15;;;-1.70;61.00;;;;;;4946443;28;20541;-61
2024/01/09 00:54:08;;;;;;;15.35;9.07;;;-1.70;61.00;;;;;;4943366;28;20051;-60
2024/01/09 00:56:34;;;;;;;14.65;8.95;;;-1.70;61.10;;;;;;4945658;28;20062;-61
2024/01/09 00:59:00;;;;;;;18.67;9.57;;;-1.70;61.50;;;;;;4948648;28;20031;-60
2024/01/09 01:01:25;;;;;;;18.95;9.55;;;-1.70;61.30;;;;;;4927952;28;20059;-62
2024/01/09 01:03:51;;;;;;;19.83;9.32;;;-1.60;61.20;;;;;;4952921;28;20051;-61
2024/01/09 01:06:17;;;;;;;17.70;9.15;;;-1.70;60.80;;;;;;4949302;28;20039;-61
2024/01/09 01:08:42;;;;;;;15.35;8.45;;;-1.80;60.90;;;;;;4944840;28;20457;-60
2024/01/09 01:11:08;;;;;;;18.88;9.35;;;-1.80;61.10;;;;;;4947052;28;20394;-59
2024/01/09 01:13:34;;;;;;;17.50;9.15;;;-1.80;60.20;;;;;;4950955;28;20114;-60
2024/01/09 01:16:00;;;;;;;16.38;9.50;;;-1.80;60.50;;;;;;4955603;28;20042;-59
2024/01/09 01:18:26;;;;;;;21.23;9.63;;;-1.80;60.80;;;;;;4948800;28;20035;-60
2024/01/09 01:20:51;;;;;;;17.58;9.05;;;-1.80;60.50;;;;;;4949706;28;20143;-62
2024/01/09 01:23:17;;;;;;;20.65;9.95;;;-1.80;61.10;;;;;;4931749;28;20089;-61
2024/01/09 01:25:43;;;;;;;18.50;9.52;;;-1.80;60.90;;;;;;4948435;28;20043;-59
2024/01/09 01:28:08;;;;;;;16.08;8.57;;;-1.90;61.00;;;;;;4948392;28;20466;-61
2024/01/09 01:30:34;;;;;;;20.05;10.18;;;-1.90;60.50;;;;;;4951678;28;20028;-61
2024/01/09 01:33:00;;;;;;;15.82;9.30;;;-1.90;60.10;;;;;;4943048;28;20133;-61
2024/01/09 01:35:25;;;;;;;16.95;8.50;;;-1.80;60.50;;;;;;4949883;28;20042;-62
2024/01/09 01:37:51;;;;;;;21.80;9.68;;;-1.70;60.80;;;;;;4946603;28;20035;-61
2024/01/09 01:40:17;;;;;;;18.42;8.85;;;-1.90;60.50;;;;;;4950159;28;20529;-60
2024/01/09 01:42:43;;;;;;;20.52;10.32;;;-1.90;60.70;;;;;;4950213;28;20034;-62
2024/01/09 01:45:16;;;;;;;20.75;10.25;;;-1.70;60.00;;;;;;4892911;28;20047;-60
2024/01/09 01:47:46;;;;;;;13.53;7.27;;;-2.00;60.10;;;;;;4950145;28;20019;-60
2024/01/09 01:50:13;;;;;;;15.02;8.68;;;-2.00;59.80;;;;;;4941798;28;20031;-61
2024/01/09 01:52:41;;;;;;;19.63;9.65;;;-1.90;60.50;;;;;;4940906;28;20525;-61
2024/01/09 01:55:09;;;;;;;18.83;9.32;;;-2.00;60.10;;;;;;4949556;28;20038;-60
2024/01/09 01:57:37;;;;;;;20.00;8.32;;;-2.00;60.50;;;;;;4954489;28;20125;-61
2024/01/09 02:00:03;;;;;;;19.23;8.82;;;-1.80;60.90;;;;;;4947812;28;20031;-61
2024/01/09 02:02:31;;;;;;;20.33;9.88;;;-2.00;60.80;;;;;;4952164;28;20030;-59
2024/01/09 02:04:57;;;;;;;22.60;9.75;;;-2.10;61.00;;;;;;4949763;28;20043;-61
2024/01/09 02:07:25;;;;;;;20.60;9.32;;;-1.90;60.90;;;;;;4948285;28;20629;-61
2024/01/09 02:09:53;;;;;;;20.98;10.45;;;-1.90;61.00;;;;;;4947457;28;20039;-60
2024/01/09 02:12:19;;;;;;;19.42;9.32;;;-2.10;60.50;;;;;;4947384;28;20383;-62
2024/01/09 02:14:46;;;;;;;21.52;10.05;;;-2.10;60.30;;;;;;4945626;28;20461;-61
2024/01/09 02:17:12;;;;;;;21.30;10.57;;;-2.10;60.50;;;;;;4945048;28;20034;-59
2024/01/09 02:19:38;;;;;;;18.75;9.60;;;-2.10;60.00;;;;;;4946810;28;20023;-61
2024/01/09 02:22:03;;;;;;;19.17;10.10;;;-2.10;61.10;;;;;;4948073;28;20042;-59
2024/01/09 02:24:29;;;;;;;17.42;8.90;;;-2.10;59.90;;;;;;4948314;28;20031;-61
2024/01/09 02:27:19;;;;;;;18.67;9.82;;;-2.10;60.20;;;;;;4950809;28;20039;-60
2024/01/09 02:29:49;;;;;;;18.45;9.70;;;-2.20;60.00;;;;;;4948623;28;20020;-60
2024/01/09 02:32:16;;;;;;;18.40;9.95;;;-2.20;60.00;;;;;;4949470;28;20441;-61
2024/01/09 02:34:44;;;;;;;26.63;10.50;;;-2.20;59.80;;;;;;4945151;28;20037;-60
2024/01/09 02:37:10;;;;;;;18.45;9.45;;;-2.20;60.10;;;;;;4936341;28;20039;-59
2024/01/09 02:39:36;;;;;;;20.42;9.52;;;-2.20;60.70;;;;;;4945438;28;20070;-59
2024/01/09 02:42:02;;;;;;;15.60;8.35;;;-2.10;60.20;;;;;;4929279;29;20122;-60
2024/01/09 02:44:28;;;;;;;21.30;9.70;;;-2.30;60.40;;;;;;4935400;28;20026;-59
2024/01/09 02:46:54;;;;;;;19.50;9.43;;;-2.30;60.40;;;;;;4882654;28;20051;-60
2024/01/09 02:49:19;;;;;;;18.55;9.95;;;-2.00;60.50;;;;;;4943886;28;20031;-61
2024/01/09 02:51:45;;;;;;;20.98;10.10;;;-2.30;60.40;;;;;;4932094;29;20027;-61
2024/01/09 02:54:11;;;;;;;18.30;9.40;;;-2.10;60.60;;;;;;4948358;28;20410;-61
2024/01/09 02:56:39;;;;;;;19.17;9.57;;;-2.30;60.40;;;;;;4945997;28;20034;-60
2024/01/09 02:59:05;;;;;;;19.23;9.70;;;-2.30;60.30;;;;;;4948117;28;20023;-60
2024/01/09 03:01:31;;;;;;;21.00;10.57;;;-2.30;60.60;;;;;;4945589;28;20470;-59
2024/01/09 03:03:57;;;;;;;21.40;10.02;;;-2.30;60.10;;;;;;4927800;28;20036;-59
2024/01/09 03:06:23;;;;;;;21.63;10.13;;;-2.30;59.90;;;;;;4948748;28;20043;-61
2024/01/09 03:08:48;;;;;;;22.85;10.45;;;-2.30;59.80;;;;;;4946606;28;20024;-61
2024/01/09 03:11:15;;;;;;;23.30;10.90;;;-2.10;59.70;;;;;;4943295;28;20039;-59
2024/01/09 03:13:40;;;;;;;19.42;9.77;;;-2.30;59.90;;;;;;4945567;28;20036;-61
2024/01/09 03:16:10;;;;;;;19.45;9.98;;;-2.40;60.60;;;;;;4950341;28;20037;-60
2024/01/09 03:18:36;;;;;;;21.58;10.40;;;-2.40;60.40;;;;;;4947783;28;20049;-61
2024/01/09 03:21:02;;;;;;;25.63;11.35;;;-2.40;59.80;;;;;;4949367;28;20493;-61
2024/01/09 03:23:27;;;;;;;17.83;9.80;;;-2.40;59.40;;;;;;4941892;28;21430;-60
2024/01/09 03:25:53;;;;;;;22.08;10.02;;;-2.20;59.80;;;;;;4944545;28;20482;-61
2024/01/09 03:28:19;;;;;;;19.48;10.35;;;-2.30;60.20;;;;;;4947080;28;20466;-61
2024/01/09 03:30:44;;;;;;;19.90;10.02;;;-2.50;60.10;;;;;;4928726;29;20034;-60
2024/01/09 03:33:10;;;;;;;19.05;9.55;;;-2.40;60.80;;;;;;4942677;28;20038;-60
2024/01/09 03:35:36;;;;;;;22.13;10.25;;;-2.50;60.30;;;;;;4945336;28;20344;-60
2024/01/09 03:38:01;;;;;;;20.35;10.32;;;-2.50;60.10;;;;;;4945130;28;20505;-59
2024/01/09 03:40:27;;;;;;;19.45;10.13;;;-2.50;60.30;;;;;;4944552;28;20040;-61
2024/01/09 03:42:52;;;;;;;20.67;10.20;;;-2.50;60.20;;;;;;4948220;28;20105;-61
2024/01/09 03:45:20;;;;;;;23.83;10.95;;;-2.30;60.30;;;;;;4853973;28;20061;-61
2024/01/09 03:47:45;;;;;;;19.05;9.90;;;-2.50;60.10;;;;;;4941878;28;20086;-61
2024/01/09 03:50:11;;;;;;;20.90;9.80;;;-2.50;60.20;;;;;;4943346;28;20035;-60
2024/01/09 03:52:37;;;;;;;17.80;9.88;;;-2.30;60.60;;;;;;4943594;28;20103;-59
2024/01/09 03:55:03;;;;;;;18.42;9.27;;;-2.50;60.20;;;;;;4943017;28;20031;-60
2024/01/09 03:57:28;;;;;;;18.35;9.80;;;-2.50;60.40;;;;;;4949935;28;20094;-60
2024/01/09 03:59:54;;;;;;;23.30;10.00;;;-2.50;60.50;;;;;;4935378;28;20038;-60
2024/01/09 04:02:19;;;;;;;18.48;10.15;;;-2.50;60.30;;;;;;4950652;28;20027;-60
2024/01/09 04:04:45;;;;;;;18.83;9.63;;;-2.50;60.40;;;;;;4934428;29;20153;-60
2024/01/09 04:07:11;;;;;;;17.48;9.32;;;-2.40;60.40;;;;;;4946585;28;20031;-60
2024/01/09 04:09:37;;;;;;;20.33;9.82;;;-2.50;60.70;;;;;;4949076;28;20027;-59
2024/01/09 04:12:03;;;;;;;22.83;10.90;;;-2.50;60.80;;;;;;4947181;28;20020;-59
2024/01/09 04:14:29;;;;;;;21.25;10.00;;;-2.50;60.60;;;;;;4953676;28;20549;-59
2024/01/09 04:16:56;;;;;;;19.45;9.93;;;-2.50;60.60;;;;;;4949212;28;20058;-59
2024/01/09 04:19:21;;;;;;;21.25;10.43;;;-2.30;60.70;;;;;;4933674;29;20039;-60
2024/01/09 04:21:47;;;;;;;21.67;9.85;;;-2.50;60.20;;;;;;4946612;28;20490;-60
2024/01/09 04:24:13;;;;;;;20.58;9.02;;;-2.50;60.40;;;;;;4948429;28;20023;-61
2024/01/09 04:26:39;;;;;;;25.00;10.15;;;-2.50;60.70;;;;;;4949790;28;20114;-61
2024/01/09 04:29:04;;;;;;;18.77;9.68;;;-2.60;60.20;;;;;;4945198;28;20035;-61
2024/01/09 04:31:30;;;;;;;22.27;10.25;;;-2.60;60.50;;;;;;4946862;28;20032;-61
2024/01/09 04:33:56;;;;;;;20.77;9.68;;;-2.60;60.80;;;;;;4949314;28;20027;-59
2024/01/09 04:36:21;;;;;;;22.52;10.10;;;-2.60;60.50;;;;;;4950774;28;20434;-60
2024/01/09 04:38:47;;;;;;;24.70;10.43;;;-2.60;60.60;;;;;;4949151;28;20102;-60
2024/01/09 04:41:17;;;;;;;22.77;10.38;;;-2.60;60.60;;;;;;4952207;28;20498;-60
2024/01/09 04:43:44;;;;;;;17.70;9.35;;;-2.60;61.00;;;;;;4953216;28;20082;-59
2024/01/09 04:46:11;;;;;;;22.90;10.52;;;-2.60;61.00;;;;;;4934832;28;20042;-61
2024/01/09 04:48:37;;;;;;;22.48;9.90;;;-2.60;60.80;;;;;;4945036;28;20492;-60
2024/01/09 04:51:03;;;;;;;21.65;8.82;;;-2.40;60.80;;;;;;4948098;28;20046;-61
2024/01/09 04:53:29;;;;;;;19.60;10.30;;;-2.60;60.80;;;;;;4949720;28;20044;-60
2024/01/09 04:55:55;;;;;;;22.15;11.77;;;-2.60;60.80;;;;;;4931562;28;20129;-61
2024/01/09 04:58:20;;;;;;;23.08;11.13;;;-2.60;61.20;;;;;;4948462;28;20031;-60
2024/01/09 05:00:47;;;;;;;23.15;11.40;;;-2.60;60.90;;;;;;4950063;28;20114;-60
2024/01/09 05:03:13;;;;;;;21.00;10.35;;;-2.60;60.80;;;;;;4935244;28;20037;-60
2024/01/09 05:05:39;;;;;;;20.88;10.63;;;-2.70;60.60;;;;;;4950926;28;20046;-60
2024/01/09 05:08:04;;;;;;;21.25;10.73;;;-2.60;60.90;;;;;;4947110;28;20031;-61
2024/01/09 05:10:31;;;;;;;23.30;10.27;;;-2.70;60.90;;;;;;4953290;28;20058;-60
2024/01/09 05:12:57;;;;;;;21.05;10.50;;;-2.70;60.60;;;;;;4946073;28;20430;-61
2024/01/09 05:15:22;;;;;;;19.48;10.68;;;-2.70;61.00;;;;;;4947581;28;20494;-61
2024/01/09 05:17:48;;;;;;;25.65;11.35;;;-2.70;60.90;;;;;;4948845;28;20106;-60
2024/01/09 05:20:14;;;;;;;21.05;10.10;;;-2.70;60.50;;;;;;4948675;28;20347;-59
2024/01/09 05:22:39;;;;;;;24.95;11.13;;;-2.70;60.80;;;;;;4929893;28;20035;-60
2024/01/09 05:25:06;;;;;;;24.75;11.60;;;-2.70;61.50;;;;;;4947087;28;20035;-61
2024/01/09 05:27:32;;;;;;;20.63;10.27;;;-2.70;61.10;;;;;;4942761;28;20027;-60
2024/01/09 05:29:58;;;;;;;24.77;11.73;;;-2.70;61.10;;;;;;4937567;28;20057;-61
2024/01/09 05:32:24;;;;;;;23.13;10.98;;;-2.60;60.80;;;;;;4948673;28;20359;-60
2024/01/09 05:34:50;;;;;;;22.00;10.82;;;-2.70;61.00;;;;;;4945823;28;20049;-59
2024/01/09 05:37:16;;;;;;;24.00;11.98;;;-2.70;60.90;;;;;;4945716;28;20038;-61
2024/01/09 05:39:45;;;;;;;22.83;11.68;;;-2.70;60.90;;;;;;4951552;28;20031;-61
2024/01/09 05:42:11;;;;;;;26.10;11.88;;;-2.70;60.90;;;;;;4947632;28;20106;-61
2024/01/09 05:44:37;;;;;;;24.65;12.55;;;-2.70;60.90;;;;;;4893766;28;20150;-58
2024/01/09 05:47:03;;;;;;;24.60;12.30;;;-2.70;60.80;;;;;;4947619;28;20074;-62
2024/01/09 05:49:29;;;;;;;26.80;10.52;;;-2.70;60.70;;;;;;4947311;28;20027;-59
2024/01/09 05:51:55;;;;;;;21.40;9.60;;;-2.70;60.90;;;;;;4948778;28;20486;-60
2024/01/09 05:54:20;;;;;;;25.10;11.95;;;-2.70;61.10;;;;;;4948366;28;20106;-61
2024/01/09 05:56:46;;;;;;;20.58;10.23;;;-2.70;60.90;;;;;;4947917;28;20023;-60
2024/01/09 05:59:12;;;;;;;22.25;10.88;;;-2.80;60.80;;;;;;4944976;28;20059;-61
2024/01/09 06:01:38;;;;;;;22.67;10.60;;;-2.80;60.60;;;;;;4953060;28;20700;-61
2024/01/09 06:04:04;;;;;;;20.45;10.88;;;-2.80;60.90;;;;;;4946195;28;20050;-60
2024/01/09 06:06:30;;;;;;;21.70;10.90;;;-2.50;60.70;;;;;;4946342;28;20477;-60
2024/01/09 06:08:56;;;;;;;21.63;10.32;;;-2.80;60.50;;;;;;4943983;28;20047;-59
2024/01/09 06:11:21;;;;;;;21.35;10.32;;;-2.80;60.60;;;;;;4947695;28;20024;-61
2024/01/09 06:13:47;;;;;;;22.63;10.82;;;-2.80;60.80;;;;;;4950294;28;20091;-59
2024/01/09 06:16:13;;;;;;;23.95;10.90;;;-2.80;60.50;;;;;;4948653;28;20242;-59
2024/01/09 06:18:39;;;;;;;24.77;11.23;;;-2.80;60.80;;;;;;4949086;28;20023;-60
2024/01/09 06:21:04;;;;;;;22.15;10.35;;;-2.80;60.40;;;;;;4948256;28;20026;-61
2024/01/09 06:23:30;;;;;;;25.73;11.65;;;-2.80;60.70;;;;;;4948277;28;20082;-61
2024/01/09 06:25:56;;;;;;;22.60;10.93;;;-2.90;60.60;;;;;;4946822;28;20062;-61
2024/01/09 06:28:21;;;;;;;22.50;9.57;;;-2.90;60.70;;;;;;4951246;28;20034;-60
2024/01/09 06:30:47;;;;;;;22.83;10.38;;;-2.90;60.90;;;;;;4925947;29;20114;-60
2024/01/09 06:33:13;;;;;;;24.42;11.13;;;-2.60;61.20;;;;;;4945204;28;20027;-60
2024/01/09 06:35:38;;;;;;;26.75;11.38;;;-2.60;60.80;;;;;;4936241;28;20035;-60
2024/01/09 06:38:04;;;;;;;24.17;12.27;;;-2.70;60.50;;;;;;4948321;28;20127;-61
2024/01/09 06:40:30;;;;;;;22.90;10.98;;;-2.90;59.90;;;;;;4947998;28;20106;-59
2024/01/09 06:42:56;;;;;;;24.80;10.23;;;-2.60;60.60;;;;;;4931593;28;20078;-60
2024/01/09 06:45:22;;;;;;;20.98;9.65;;;-2.90;60.70;;;;;;4864319;28;20046;-59
2024/01/09 06:47:48;;;;;;;27.05;11.18;;;-2.90;60.80;;;;;;4944426;28;20039;-59
2024/01/09 06:50:13;;;;;;;19.13;10.10;;;-2.90;60.90;;;;;;4945460;28;20027;-59
2024/01/09 06:52:39;;;;;;;21.88;11.57;;;-2.90;60.90;;;;;;4946275;28;20134;-60
2024/01/09 06:55:05;;;;;;;23.13;11.07;;;-2.70;61.00;;;;;;4945327;28;20031;-61
2024/01/09 06:57:31;;;;;;;25.52;11.60;;;-2.90;61.10;;;;;;4948333;28;20085;-61
2024/01/09 06:59:56;;;;;;;23.77;11.57;;;-2.90;61.00;;;;;;4942587;28;20477;-59
2024/01/09 07:02:22;;;;;;;21.55;10.68;;;-2.90;60.80;;;;;;4951744;28;20027;-59
2024/01/09 07:04:48;;;;;;;23.77;11.27;;;-2.90;60.80;;;;;;4949195;28;20499;-60
2024/01/09 07:07:14;;;;;;;19.50;10.27;;;-2.90;60.40;;;;;;4949319;28;20038;-61
2024/01/09 07:09:40;;;;;;;19.60;10.45;;;-2.90;60.60;;;;;;4951082;28;20094;-60
2024/01/09 07:12:09;;;;;;;20.73;9.60;;;-2.90;60.70;;;;;;4924862;28;20135;-61
2024/01/09 07:14:37;;;;;;;26.45;11.15;;;-2.90;60.90;;;;;;4947861;28;20036;-60
2024/01/09 07:17:03;;;;;;;23.10;11.23;;;-2.90;60.50;;;;;;4931132;28;20034;-59
2024/01/09 07:19:30;;;;;;;21.08;11.38;;;-2.90;60.80;;;;;;4948159;28;20386;-61
2024/01/09 07:21:56;;;;;;;21.35;10.85;;;-2.90;60.80;;;;;;4941578;28;20035;-60
2024/01/09 07:24:22;;;;;;;23.23;11.05;;;-2.90;60.70;;;;;;4947510;28;20171;-60
2024/01/09 07:26:50;;;;;;;20.35;10.27;;;-2.90;60.80;;;;;;4949721;28;20113;-66
2024/01/09 07:29:18;;;;;;;19.20;10.63;;;-2.90;60.90;;;;;;4929681;28;20028;-61
2024/01/09 07:31:43;;;;;;;23.15;10.18;;;-2.80;61.20;;;;;;4946398;28;20150;-61
2024/01/09 07:34:09;;;;;;;22.80;10.38;;;-2.80;60.90;;;;;;4952720;28;20142;-61
2024/01/09 07:36:35;;;;;;;25.60;10.70;;;-2.70;61.00;;;;;;4951069;28;20038;-61
2024/01/09 07:39:01;;;;;;;24.20;11.65;;;-2.80;60.80;;;;;;4930952;28;20039;-60
2024/01/09 07:41:26;;;;;;;69.25;31.58;;;-2.80;60.90;;;;;;4950575;28;20036;-61
2024/01/09 07:43:52;;;;;;;72.88;30.17;;;-2.80;60.70;;;;;;4948848;28;20071;-60
2024/01/09 07:46:20;;;;;;;53.33;21.88;;;-2.80;60.90;;;;;;4878742;28;20042;-61
2024/01/09 07:48:46;;;;;;;37.17;17.17;;;-2.60;61.10;;;;;;4950004;28;20167;-61
2024/01/09 07:51:11;;;;;;;70.55;24.85;;;-2.70;60.70;;;;;;4953668;28;20030;-62
2024/01/09 07:53:37;;;;;;;133.90;40.55;;;-2.70;61.00;;;;;;4939962;28;20521;-61
2024/01/09 07:56:03;;;;;;;41.13;17.48;;;-2.60;61.00;;;;;;4949568;28;20027;-62
2024/01/09 07:58:28;;;;;;;51.63;19.83;;;-2.60;60.80;;;;;;4935315;28;20039;-61
2024/01/09 08:00:56;;;;;;;70.72;27.05;;;-2.60;60.80;;;;;;4951283;28;20418;-61
2024/01/09 08:03:22;;;;;;;77.95;30.55;;;-2.40;61.00;;;;;;4930310;29;20051;-60
2024/01/09 08:05:47;;;;;;;67.82;27.13;;;-2.50;60.90;;;;;;4949753;28;20073;-61
2024/01/09 08:08:13;;;;;;;42.65;20.38;;;-2.50;60.90;;;;;;4934461;29;20034;-61
2024/01/09 08:10:40;;;;;;;33.67;17.20;;;-2.50;60.60;;;;;;4931000;28;20046;-61
2024/01/09 08:13:06;;;;;;;40.80;19.55;;;-2.50;60.70;;;;;;4929506;28;20119;-62
2024/01/09 08:15:31;;;;;;;170.13;62.50;;;-2.40;60.90;;;;;;4934995;28;20177;-60
2024/01/09 08:17:58;;;;;;;62.67;27.95;;;-2.40;60.60;;;;;;4943145;28;20124;-63
2024/01/09 08:20:23;;;;;;;53.38;24.33;;;-2.40;60.90;;;;;;4935323;29;20027;-61
2024/01/09 08:22:49;;;;;;;42.63;19.92;;;-2.30;61.00;;;;;;4954688;28;20091;-61
2024/01/09 08:25:16;;;;;;;42.90;17.98;;;-2.30;60.90;;;;;;4951997;28;20093;-61
2024/01/09 08:27:43;;;;;;;33.03;16.02;;;-2.20;60.90;;;;;;4948394;28;20025;-61
2024/01/09 08:30:10;;;;;;;48.47;21.65;;;-2.10;61.00;;;;;;4955411;28;20385;-61
2024/01/09 08:32:39;;;;;;;32.90;16.05;;;-2.10;60.40;;;;;;4949438;28;20055;-61
2024/01/09 08:35:05;;;;;;;29.00;14.40;;;-2.00;60.60;;;;;;4948162;28;20038;-61
2024/01/09 08:37:30;;;;;;;26.70;12.93;;;-2.00;60.50;;;;;;4952158;28;20026;-62
2024/01/09 08:39:56;;;;;;;24.48;11.52;;;-1.90;60.60;;;;;;4947208;28;20114;-61
2024/01/09 08:42:22;;;;;;;22.83;10.98;;;-1.80;60.30;;;;;;4947452;28;20031;-61
2024/01/09 08:44:48;;;;;;;26.63;12.88;;;-1.80;60.30;;;;;;4845045;29;20578;-62
2024/01/09 08:47:14;;;;;;;23.55;10.98;;;-1.70;60.60;;;;;;4947430;28;20374;-62
2024/01/09 08:49:40;;;;;;;25.77;11.30;;;-1.70;60.40;;;;;;4937016;28;20039;-61
2024/01/09 08:52:06;;;;;;;23.23;11.15;;;-1.60;60.10;;;;;;4952638;28;20404;-61
2024/01/09 08:54:32;;;;;;;18.92;10.35;;;-1.60;60.00;;;;;;4936539;29;20051;-61
2024/01/09 08:56:57;;;;;;;20.02;10.00;;;-1.40;60.10;;;;;;4946678;28;20465;-60
2024/01/09 08:59:23;;;;;;;21.85;11.73;;;-1.40;59.80;;;;;;4950846;28;20035;-62
2024/01/09 09:01:49;;;;;;;22.58;11.10;;;-1.50;60.30;;;;;;4948981;28;20026;-61
2024/01/09 09:04:15;;;;;;;30.10;15.73;;;-1.50;59.70;;;;;;4952715;28;20408;-61
2024/01/09 09:06:40;;;;;;;25.90;12.13;;;-1.40;59.80;;;;;;4945253;28;20043;-62
2024/01/09 09:09:06;;;;;;;25.30;12.48;;;-1.30;59.80;;;;;;4948612;28;20053;-61
2024/01/09 09:11:32;;;;;;;25.13;11.35;;;-1.40;59.40;;;;;;4927826;28;20042;-61
2024/01/09 09:13:58;;;;;;;25.90;13.45;;;-1.40;59.90;;;;;;4949877;28;20023;-62
2024/01/09 09:16:28;;;;;;;28.67;12.80;;;-1.30;60.00;;;;;;4951682;28;20441;-61
2024/01/09 09:18:54;;;;;;;24.45;11.57;;;-1.30;59.90;;;;;;4948761;28;20035;-61
2024/01/09 09:21:19;;;;;;;20.63;11.43;;;-1.30;59.90;;;;;;4954299;28;20141;-61
2024/01/09 09:23:45;;;;;;;26.50;12.27;;;-1.20;60.20;;;;;;4945596;28;20019;-62
2024/01/09 09:26:12;;;;;;;22.02;11.38;;;-1.20;60.10;;;;;;4934247;29;20127;-62
2024/01/09 09:28:37;;;;;;;23.13;11.73;;;-1.10;59.90;;;;;;4949184;28;20027;-62
2024/01/09 09:31:03;;;;;;;25.48;11.55;;;-0.90;60.80;;;;;;4946962;28;20078;-63
2024/01/09 09:33:31;;;;;;;18.75;10.45;;;-1.00;59.70;;;;;;4931335;28;20649;-61
2024/01/09 09:35:57;;;;;;;20.95;11.43;;;-0.90;59.80;;;;;;4947635;28;20497;-62
2024/01/09 09:38:24;;;;;;;25.13;10.95;;;-0.90;59.70;;;;;;4954759;28;20026;-61
2024/01/09 09:40:51;;;;;;;21.17;10.45;;;-0.70;59.60;;;;;;4947259;28;20027;-61
2024/01/09 09:43:24;;;;;;;28.10;13.02;;;-0.80;59.50;;;;;;4948595;28;20038;-61
2024/01/09 09:45:54;;;;;;;19.92;10.30;;;-0.60;59.50;;;;;;4948305;28;20504;-61
2024/01/09 09:48:23;;;;;;;23.23;11.75;;;-0.70;59.30;;;;;;4949617;28;20510;-61
2024/01/09 09:50:53;;;;;;;31.13;13.45;;;-0.70;59.40;;;;;;4950491;28;20027;-61
2024/01/09 09:53:27;;;;;;;28.23;13.02;;;-0.60;59.40;;;;;;4946478;28;20048;-62
2024/01/09 09:55:53;;;;;;;22.50;11.32;;;-0.60;59.20;;;;;;4946832;28;20497;-61
2024/01/09 09:58:19;;;;;;;27.42;13.35;;;-0.50;58.60;;;;;;4951462;28;20366;-60
2024/01/09 10:00:45;;;;;;;41.65;19.90;;;-0.40;59.30;;;;;;4954932;28;20666;-61
2024/01/09 10:03:15;;;;;;;40.40;18.42;;;-0.50;59.10;;;;;;4949904;28;20078;-62
2024/01/09 10:05:43;;;;;;;33.03;17.42;;;-0.50;59.30;;;;;;4949791;28;20035;-61
2024/01/09 10:08:12;;;;;;;31.13;14.18;;;-0.40;59.00;;;;;;4945252;28;20505;-61
2024/01/09 10:10:38;;;;;;;32.83;15.27;;;-0.40;58.80;;;;;;4950449;28;20110;-62
2024/01/09 10:13:04;;;;;;;25.38;12.52;;;-0.40;58.90;;;;;;4950746;28;20118;-62
2024/01/09 10:15:29;;;;;;;27.13;13.40;;;-0.30;58.70;;;;;;4945830;28;20157;-61
2024/01/09 10:17:58;;;;;;;27.27;13.20;;;0.00;58.40;;;;;;4944161;28;20070;-63
2024/01/09 10:20:28;;;;;;;26.20;12.70;;;-0.30;58.40;;;;;;4949492;28;20038;-62
2024/01/09 10:22:55;;;;;;;25.73;13.10;;;-0.30;58.40;;;;;;4952680;28;20708;-62
2024/01/09 10:25:21;;;;;;;33.20;15.10;;;-0.10;58.30;;;;;;4951552;28;20043;-62
2024/01/09 10:27:47;;;;;;;23.40;11.85;;;-0.20;58.60;;;;;;4948769;28;20495;-62
2024/01/09 10:30:13;;;;;;;26.40;14.25;;;-0.20;58.90;;;;;;4947890;28;20035;-61
2024/01/09 10:32:39;;;;;;;30.50;15.25;;;-0.20;58.80;;;;;;4949468;28;20501;-61
2024/01/09 10:35:07;;;;;;;28.17;13.90;;;-0.20;58.40;;;;;;4951250;28;20035;-61
2024/01/09 10:37:36;;;;;;;28.20;13.73;;;-0.10;58.50;;;;;;4949964;28;20110;-61
2024/01/09 10:40:05;;;;;;;28.05;12.77;;;-0.10;58.80;;;;;;4944769;28;20057;-61
2024/01/09 10:42:30;;;;;;;31.23;15.25;;;-0.10;58.30;;;;;;4946308;28;20026;-62
2024/01/09 10:45:00;;;;;;;27.67;13.25;;;0.30;58.70;;;;;;4855044;29;20995;-62
2024/01/09 10:47:31;;;;;;;20.33;12.02;;;0.00;58.40;;;;;;4946830;28;20027;-62
2024/01/09 10:49:57;;;;;;;21.48;11.00;;;0.00;58.20;;;;;;4942639;28;20399;-61
2024/01/09 10:52:25;;;;;;;24.08;11.30;;;0.10;58.50;;;;;;4941148;28;20043;-61
2024/01/09 10:54:51;;;;;;;22.80;11.40;;;0.20;58.80;;;;;;4930817;28;20039;-62
2024/01/09 10:57:17;;;;;;;23.27;11.25;;;0.20;58.00;;;;;;4946238;28;20437;-61
2024/01/09 10:59:44;;;;;;;26.95;11.75;;;0.40;58.30;;;;;;4928819;29;20059;-63
2024/01/09 11:02:20;;;;;;;24.67;12.13;;;0.30;58.10;;;;;;4945275;28;20031;-62
2024/01/09 11:04:46;;;;;;;25.10;11.45;;;0.30;57.80;;;;;;4946286;28;20455;-64
2024/01/09 11:07:16;;;;;;;26.48;13.77;;;0.60;58.40;;;;;;4949240;28;20069;-63
2024/01/09 11:09:45;;;;;;;25.92;13.57;;;0.40;58.40;;;;;;4951761;28;20043;-61
2024/01/09 11:12:36;;;;;;;32.53;15.38;;;0.50;57.40;;;;;;4952548;28;20110;-63
2024/01/09 11:15:31;;;;;;;33.47;13.98;;;0.50;57.60;;;;;;4946067;28;20028;-62
2024/01/09 11:18:03;;;;;;;24.63;12.95;;;0.50;57.90;;;;;;4952395;28;20581;-62
2024/01/09 11:20:29;;;;;;;27.80;13.93;;;0.60;57.90;;;;;;4953663;28;20455;-61
2024/01/09 11:22:55;;;;;;;26.90;13.90;;;0.60;58.10;;;;;;4954967;28;20114;-61
2024/01/09 11:25:23;;;;;;;33.03;15.38;;;0.70;58.20;;;;;;4949980;28;20035;-63
2024/01/09 11:27:53;;;;;;;39.13;17.55;;;0.70;58.00;;;;;;4952566;28;20033;-61
2024/01/09 11:30:27;;;;;;;39.05;17.58;;;0.80;58.10;;;;;;4931334;28;20501;-62
2024/01/09 11:32:53;;;;;;;47.43;21.80;;;0.90;57.80;;;;;;4948450;28;20039;-61
2024/01/09 11:35:23;;;;;;;25.27;12.57;;;0.90;58.30;;;;;;4953321;28;20373;-62
2024/01/09 11:37:50;;;;;;;32.63;16.90;;;1.00;58.10;;;;;;4952629;28;20055;-62
2024/01/09 11:40:21;;;;;;;30.05;14.00;;;1.10;58.00;;;;;;4953750;28;20069;-62
2024/01/09 11:42:51;;;;;;;30.20;13.95;;;1.10;57.80;;;;;;4948549;28;20020;-61
2024/01/09 11:45:35;;;;;;;35.65;17.98;;;1.20;57.90;;;;;;4838721;28;20438;-61
2024/01/09 11:48:00;;;;;;;26.83;14.85;;;1.20;57.10;;;;;;4949894;28;20525;-61
2024/01/09 11:50:26;;;;;;;23.85;13.07;;;1.30;57.50;;;;;;4933413;28;20031;-61
2024/01/09 11:52:52;;;;;;;39.53;17.65;;;1.30;57.70;;;;;;4946745;28;20066;-61
2024/01/09 11:55:21;;;;;;;33.95;16.30;;;1.30;57.30;;;;;;4949434;28;20083;-61
2024/01/09 11:57:46;;;;;;;24.55;13.15;;;1.30;57.50;;;;;;4951263;28;20070;-61
2024/01/09 12:00:12;;;;;;;21.10;11.55;;;1.40;56.90;;;;;;4948220;28;20122;-61
2024/01/09 12:02:38;;;;;;;26.08;12.05;;;1.40;56.80;;;;;;4947142;28;20163;-61
2024/01/09 12:05:08;;;;;;;28.92;15.10;;;1.40;56.80;;;;;;4948737;28;20050;-61
2024/01/09 12:07:38;;;;;;;28.38;14.10;;;1.40;56.50;;;;;;4950021;28;20073;-62
2024/01/09 12:10:05;;;;;;;30.65;15.30;;;1.40;56.90;;;;;;4954270;28;20486;-62
2024/01/09 12:12:31;;;;;;;53.50;22.45;;;1.40;56.50;;;;;;4951066;28;20097;-62
2024/01/09 12:14:58;;;;;;;63.13;24.30;;;1.50;57.30;;;;;;4952422;28;20068;-62
2024/01/09 12:17:33;;;;;;;28.00;14.43;;;1.70;56.60;;;;;;4950707;28;20034;-62
2024/01/09 12:20:04;;;;;;;24.92;13.27;;;1.60;56.60;;;;;;4944994;28;20035;-62
2024/01/09 12:22:35;;;;;;;22.55;11.02;;;1.60;56.60;;;;;;4949136;28;20373;-61
2024/01/09 12:25:01;;;;;;;25.25;12.77;;;1.70;57.10;;;;;;4934277;28;20062;-62
2024/01/09 12:27:28;;;;;;;23.20;11.48;;;1.70;56.50;;;;;;4953462;28;20019;-62